Flight Track Log - Related Links

Times and Time Zones

All times are in EDT time to prevent confusion due to time zone crossing. See the SWA1377 flight status page for this flight to view local times or setup timezone preferences in your user account.

Time Position Orientation Groundspeed Altitude Reporting Facility
EDT Latitude Longitude Course Direction KTS MPH feet Rate Location/Type
Fri 10:17:57 PM 41.8000 -87.7667 37° Northeast 141 162 2,000  Level Chicago TRACON
Fri 10:18:51 PM 41.8333 -87.7333 37° Northeast 226 260 4,100 1,579 Climbing Chicago TRACON
Fri 10:19:51 PM 41.8167 -87.6333 103° East 276 318 5,000 509 Climbing Chicago TRACON
Fri 10:20:37 PM 41.8100 -87.5639 97° East 265 305 5,000 1,278 Level Chicago Center
Fri 10:21:39 PM 41.8008 -87.4533 96° East 283 326 7,300 2,878 Climbing Chicago Center
Fri 10:22:40 PM 41.7883 -87.3372 98° East 307 353 10,900 3,148 Climbing Chicago Center
Fri 10:23:41 PM 41.7736 -87.1836 97° East 344 396 13,700 3,024 Climbing Chicago Center
Fri 10:24:43 PM 41.7611 -87.0408 97° East 379 436 17,100 2,927 Climbing Chicago Center
Fri 10:25:44 PM 41.7636 -86.8878 89° East 406 467 19,700 2,439 Climbing Chicago Center
Fri 10:26:46 PM 41.7647 -86.7258 89° East 429 494 22,100 2,341 Climbing Chicago Center
Fri 10:27:47 PM 41.7658 -86.5486 89° East 448 516 24,500 2,213 Climbing Chicago Center
Fri 10:28:48 PM 41.7675 -86.3750 89° East 464 534 26,600 1,967 Climbing Chicago Center
Fri 10:29:49 PM 41.7872 -86.1992 81° East 479 551 28,500 1,756 Climbing Chicago Center
Fri 10:30:51 PM 41.8194 -86.0222 76° East 485 558 30,200 1,463 Climbing Chicago Center
Fri 10:31:52 PM 41.8444 -85.8381 80° East 496 571 31,500 1,377 Climbing Chicago Center
Fri 10:32:53 PM 41.8686 -85.6475 80° East 509 586 33,000 1,377 Climbing Chicago Center
Fri 10:33:54 PM 41.8931 -85.4542 80° East 516 594 34,300 1,020 Climbing Chicago Center
Fri 10:34:33 PM 41.9117 -85.3328 78° East 534 615 34,700 1,224 Climbing Cleveland Center
Fri 10:35:32 PM 41.9364 -85.1336 80° East 540 621 36,300 1,563 Climbing Cleveland Center
Fri 10:36:32 PM 41.9583 -84.9453 81° East 528 608 37,800 1,100 Climbing Cleveland Center
Fri 10:37:32 PM 41.9822 -84.7542 80° East 523 602 38,500 600 Climbing Cleveland Center
Fri 10:38:32 PM 42.0036 -84.5569 82° East 518 596 39,000 248 Climbing Cleveland Center
Fri 10:39:33 PM 42.0269 -84.3656 81° East 518 596 39,000  Level Cleveland Center
Fri 10:40:32 PM 42.0458 -84.1597 83° East 518 596 39,000  Level Cleveland Center
Fri 10:41:32 PM 42.0686 -83.9650 81° East 518 596 39,000  Level Cleveland Center
Fri 10:42:32 PM 42.0906 -83.7758 81° East 523 602 39,000  Level Cleveland Center
Fri 10:43:32 PM 42.1083 -83.5836 83° East 513 590 39,000  Level Cleveland Center
Fri 10:44:32 PM 42.1300 -83.3914 81° East 518 596 39,000  Level Cleveland Center
Fri 10:45:32 PM 42.1511 -83.2019 81° East 518 596 39,000  Level Cleveland Center
Fri 10:46:33 PM 42.1697 -83.0094 83° East 518 596 39,000  Level Cleveland Center
Fri 10:47:32 PM 42.1883 -82.8194 82° East 518 596 39,000  Level Cleveland Center
Fri 10:48:32 PM 42.2106 -82.6269 81° East 518 596 39,000  Level Cleveland Center
Fri 10:49:32 PM 42.2261 -82.4533 83° East 518 596 39,000  Level Cleveland Center
Fri 10:50:32 PM 42.2458 -82.2606 82° East 518 596 39,000  Level Cleveland Center
Fri 10:51:32 PM 42.2650 -82.0758 82° East 513 590 39,000  Level Cleveland Center
Fri 10:52:32 PM 42.2839 -81.8825 82° East 513 590 39,000  Level Cleveland Center
Fri 10:53:32 PM 42.3006 -81.6892 83° East 513 590 39,000  Level Cleveland Center
Fri 10:54:32 PM 42.3189 -81.4986 83° East 513 590 39,000  Level Cleveland Center
Fri 10:55:32 PM 42.3350 -81.3078 83° East 518 596 39,000  Level Cleveland Center
Fri 10:56:33 PM 42.3547 -81.0972 83° East 518 596 39,000  Level Cleveland Center
Fri 10:57:32 PM 42.3722 -80.9036 83° East 518 596 39,000  Level Cleveland Center
Fri 10:58:32 PM 42.3850 -80.7125 85° East 511 588 39,000  Level Cleveland Center
Fri 10:59:32 PM 42.4019 -80.5156 83° East 517 595 39,000  Level Cleveland Center
Fri 11:00:32 PM 42.4161 -80.3272 84° East 511 588 39,000  Level Cleveland Center
Fri 11:01:32 PM 42.4344 -80.1358 83° East 511 588 39,000  Level Cleveland Center
Fri 11:02:32 PM 42.4481 -79.9586 84° East 516 594 39,000  Level Cleveland Center
Fri 11:03:32 PM 42.4633 -79.7472 84° East 521 600 39,000  Level Cleveland Center
Fri 11:04:33 PM 42.4806 -79.5556 83° East 521 600 39,000  Level Cleveland Center
Fri 11:05:32 PM 42.4933 -79.3583 85° East 521 600 39,000  Level Cleveland Center
Fri 11:06:32 PM 42.5056 -79.1608 85° East 521 600 39,000  Level Cleveland Center
Fri 11:07:32 PM 42.5178 -78.9664 85° East 521 600 39,000  Level Cleveland Center
Fri 11:08:32 PM 42.5314 -78.7686 85° East 521 600 39,000  Level Cleveland Center
Fri 11:09:32 PM 42.5447 -78.5739 85° East 521 600 39,000  Level Cleveland Center
Fri 11:10:32 PM 42.5581 -78.3761 85° East 521 600 39,000  Level Cleveland Center
Fri 11:11:33 PM 42.5686 -78.1783 86° East 521 600 39,000  Level Cleveland Center
Fri 11:12:32 PM 42.5789 -77.9833 86° East 521 600 39,000  Level Cleveland Center
Fri 11:13:33 PM 42.5889 -77.7797 86° East 528 608 39,000  Level Cleveland Center
Fri 11:16:22 PM 42.6197 -77.2489 85° East 506 582 39,000  Level Boston Center
Fri 11:17:22 PM 42.6422 -77.0558 81° East 517 595 39,000  Level Boston Center
Fri 11:18:24 PM 42.6731 -76.8603 78° East 522 601 39,000  Level Boston Center
Fri 11:19:22 PM 42.7053 -76.6647 77° East 522 601 39,000  Level Boston Center
Fri 11:20:24 PM 42.7353 -76.4717 78° East 522 601 39,000  Level Boston Center
Fri 11:21:23 PM 42.7653 -76.2728 78° East 527 606 39,000  Level Boston Center
Fri 11:22:23 PM 42.7967 -76.0792 77° East 527 606 39,000  Level Boston Center
Fri 11:23:24 PM 42.8297 -75.8831 77° East 527 606 39,000  Level Boston Center
Fri 11:24:22 PM 42.8467 -75.6658 84° East 529 609 39,000  Level Boston Center
Fri 11:25:23 PM 42.8436 -75.4675 91° East 523 602 39,000  Level Boston Center
Fri 11:26:23 PM 42.8447 -75.2664 89° East 517 595 39,000 -353 Level Boston Center
Fri 11:27:22 PM 42.8453 -75.0681 90° East 517 595 38,300 -1,587 Descending Boston Center
Fri 11:28:24 PM 42.8392 -74.8697 92° East 517 595 35,800 -2,876 Descending Boston Center
Fri 11:29:23 PM 42.8392 -74.6742 90° East 517 595 32,500 -3,250 Descending Boston Center
Fri 11:30:24 PM 42.8367 -74.4758 91° East 517 595 29,300 -1,765 Descending Boston Center
Fri 11:31:22 PM 42.8358 -74.2719 90° East 517 595 29,000 -454 Descending Boston Center
Fri 11:32:23 PM 42.8325 -74.0764 91° East 517 595 28,400 -793 Descending Boston Center
Fri 11:33:23 PM 42.8289 -73.8839 91° East 517 595 27,400 -1,059 Descending Boston Center
Fri 11:34:22 PM 42.8292 -73.6914 90° East 512 589 26,300 -950 Descending Boston Center
Fri 11:35:23 PM 42.8267 -73.5272 91° East 507 583 25,500 -885 Descending Boston Center
Fri 11:36:24 PM 42.8219 -73.3375 92° East 495 570 24,500 -1,059 Descending Boston Center
Fri 11:37:22 PM 42.8192 -73.1533 91° East 495 570 23,400 -1,059 Descending Boston Center
Fri 11:38:23 PM 42.8139 -72.9694 92° East 489 563 22,400 -1,612 Descending Boston Center
Fri 11:39:36 PM 42.8083 -72.7656 92° East 475 547 19,800 -2,336 Descending Boston Center
Fri 11:40:34 PM 42.8047 -72.6042 92° East 447 514 17,300 -2,441 Descending Boston Center
Fri 11:41:34 PM 42.7983 -72.4486 93° East 425 489 15,000 -2,281 Descending Boston Center
Fri 11:42:35 PM 42.7964 -72.2931 91° East 420 483 12,700 -2,250 Descending Boston Center
Fri 11:43:34 PM 42.8064 -72.1289 85° East 402 463 10,500 -1,328 Descending Boston Center
Fri 11:44:37 PM 42.8103 -72.0069 87° East 371 427 10,000 -942 Descending Boston Center
Fri 11:45:35 PM 42.8075 -71.8683 92° East 330 380 8,600 -1,412 Descending Boston Center
Fri 11:46:36 PM 42.8047 -71.7667 92° East 304 350 7,200 -800 Descending Boston Center
Fri 11:47:35 PM 42.7978 -71.6450 94° East 293 337 7,000 -400 Descending Boston Center
Fri 11:48:36 PM 42.7700 -71.5719 117° Southeast 254 292 6,400 -900 Descending Boston Center
Fri 11:49:35 PM 42.7297 -71.4847 122° Southeast 242 278 5,200 -966 Descending Boston Center
Fri 11:50:34 PM 42.7228 -71.4058 97° East 229 264 4,500 -600 Descending Boston Center
Fri 11:51:35 PM 42.7578 -71.3400 54° Northeast 211 243 4,000 -744 Descending Boston Center
Fri 11:52:35 PM 42.7994 -71.3564 344° North 164 189 3,000 -992 Descending Boston Center
Fri 11:53:36 PM 42.8456 -71.3839 336° Northwest 159 183 2,000 -885 Descending Boston Center
Fri 11:54:37 PM 42.8772 -71.4031 336° Northwest 146 168 1,200 -756 Descending Boston Center
Fri 11:55:35 PM 42.9128 -71.4225 338° Northwest 135 155 500 -454 Descending Boston Center
Fri 11:56:36 PM 42.9419 -71.4417 334° Northwest 135 155 300 14,250 Descending Boston Center
Fri 11:57:35 PM 42.9736 -71.4611 336° Northwest 135 155 29,000 29,186 Climbing Boston Center

Login

Don't have an account? Register now (free) for customized features, flight alerts, and more!